createdAt,value
2018-08-12T00:01:34.519Z,7.37
2018-08-12T00:04:02.574Z,6.63
2018-08-12T00:06:30.654Z,4.67
2018-08-12T00:08:58.731Z,3.73
2018-08-12T00:11:26.873Z,3.90
2018-08-12T00:13:54.970Z,2.67
2018-08-12T00:16:23.042Z,4.77
2018-08-12T00:18:51.194Z,10.60
2018-08-12T00:21:19.273Z,3.83
2018-08-12T00:23:47.366Z,6.27
2018-08-12T00:26:15.454Z,5.83
2018-08-12T00:28:43.542Z,8.27
2018-08-12T00:31:11.695Z,4.60
2018-08-12T00:33:39.771Z,4.13
2018-08-12T00:36:07.851Z,6.63
2018-08-12T00:38:35.948Z,4.70
2018-08-12T00:41:04.042Z,4.57
2018-08-12T00:43:32.128Z,3.00
2018-08-12T00:46:00.194Z,3.60
2018-08-12T00:48:28.282Z,3.30
2018-08-12T00:50:56.363Z,5.83
2018-08-12T00:53:24.514Z,5.60
2018-08-12T00:55:52.588Z,3.67
2018-08-12T00:58:20.678Z,3.13
2018-08-12T01:00:48.750Z,3.60
2018-08-12T01:03:16.844Z,8.03
2018-08-12T01:05:44.926Z,10.67
2018-08-12T01:08:13.078Z,14.58
2018-08-12T01:10:41.143Z,15.20
2018-08-12T01:13:09.219Z,14.97
2018-08-12T01:15:37.290Z,12.70
2018-08-12T01:18:05.454Z,12.07
2018-08-12T01:20:33.534Z,8.43
2018-08-12T01:23:01.622Z,9.37
2018-08-12T01:25:29.678Z,6.57
2018-08-12T01:27:57.757Z,8.17
2018-08-12T01:30:25.865Z,6.63
2018-08-12T01:32:53.950Z,5.50
2018-08-12T01:35:22.026Z,4.73
2018-08-12T01:37:50.226Z,4.67
2018-08-12T01:40:19.095Z,4.97
2018-08-12T01:42:47.403Z,7.67
2018-08-12T01:45:18.023Z,5.73
2018-08-12T01:47:46.194Z,6.47
2018-08-12T01:50:15.714Z,4.77
2018-08-12T01:52:44.034Z,7.93
2018-08-12T01:55:12.153Z,5.77
2018-08-12T01:57:40.222Z,8.40
2018-08-12T02:00:12.115Z,6.77
2018-08-12T02:02:40.191Z,10.57
2018-08-12T02:05:08.269Z,9.55
2018-08-12T02:07:36.380Z,8.50
2018-08-12T02:10:06.158Z,10.57
2018-08-12T02:12:34.270Z,7.27
2018-08-12T02:15:02.340Z,7.27
2018-08-12T02:17:30.409Z,5.53
2018-08-12T02:19:58.482Z,7.63
2018-08-12T02:22:26.562Z,5.57
2018-08-12T02:24:54.638Z,9.63
2018-08-12T02:27:22.754Z,8.63
2018-08-12T02:29:50.822Z,8.67
2018-08-12T02:32:18.894Z,8.57
2018-08-12T02:34:46.974Z,5.23
2018-08-12T02:37:15.084Z,5.70
2018-08-12T02:39:43.198Z,6.53
2018-08-12T02:42:11.319Z,6.70
2018-08-12T02:44:39.443Z,5.83
2018-08-12T02:47:07.516Z,9.13
2018-08-12T02:49:35.644Z,8.67
2018-08-12T02:52:03.735Z,6.47
2018-08-12T02:54:31.883Z,10.40
2018-08-12T02:56:59.963Z,7.17
2018-08-12T02:59:28.039Z,8.27
2018-08-12T03:01:56.118Z,9.18
2018-08-12T03:04:24.255Z,11.27
2018-08-12T03:06:52.340Z,7.40
2018-08-12T03:09:20.417Z,8.40
2018-08-12T03:11:48.525Z,9.20
2018-08-12T03:14:16.591Z,8.07
2018-08-12T03:16:44.740Z,8.07
2018-08-12T03:19:12.848Z,8.63
2018-08-12T03:21:40.926Z,8.07
2018-08-12T03:24:09.031Z,10.03
2018-08-12T03:26:37.245Z,8.03
2018-08-12T03:29:05.367Z,9.23
2018-08-12T03:31:33.452Z,8.03
2018-08-12T03:34:01.539Z,7.77
2018-08-12T03:36:29.636Z,8.90
2018-08-12T03:38:57.730Z,8.13
2018-08-12T03:41:25.813Z,9.90
2018-08-12T03:43:53.895Z,8.13
2018-08-12T03:46:22.008Z,13.83
2018-08-12T03:48:50.112Z,9.40
2018-08-12T03:51:18.184Z,7.93
2018-08-12T03:53:46.264Z,8.60
2018-08-12T03:56:14.333Z,8.68
2018-08-12T03:58:42.422Z,10.37
2018-08-12T04:01:10.518Z,8.85
2018-08-12T04:03:38.613Z,9.33
2018-08-12T04:06:06.798Z,9.20
2018-08-12T04:08:35.045Z,8.90
2018-08-12T04:11:03.113Z,11.03
2018-08-12T04:13:31.198Z,11.10
2018-08-12T04:15:59.279Z,9.83
2018-08-12T04:18:27.347Z,8.70
2018-08-12T04:20:55.464Z,9.07
2018-08-12T04:23:23.603Z,10.07
2018-08-12T04:25:51.678Z,9.40
2018-08-12T04:28:19.848Z,10.57
2018-08-12T04:30:47.898Z,8.70
2018-08-12T04:33:15.998Z,11.30
2018-08-12T04:35:44.084Z,8.93
2018-08-12T04:38:12.166Z,13.77
2018-08-12T04:40:40.250Z,11.77
2018-08-12T04:43:08.453Z,10.63
2018-08-12T04:45:36.894Z,9.93
2018-08-12T04:48:05.122Z,12.33
2018-08-12T04:50:33.245Z,10.13
2018-08-12T04:53:01.403Z,11.70
2018-08-12T04:55:29.475Z,10.43
2018-08-12T04:57:57.558Z,11.22
2018-08-12T05:00:25.646Z,10.00
2018-08-12T05:02:53.698Z,9.83
2018-08-12T05:05:21.867Z,9.93
2018-08-12T05:07:50.034Z,10.47
2018-08-12T05:10:18.202Z,11.40
2018-08-12T05:12:46.377Z,8.90
2018-08-12T05:15:14.454Z,12.77
2018-08-12T05:17:42.550Z,12.07
2018-08-12T05:20:10.692Z,10.40
2018-08-12T05:22:39.305Z,10.77
2018-08-12T05:25:07.696Z,11.30
2018-08-12T05:27:35.966Z,10.90
2018-08-12T05:30:05.358Z,11.17
2018-08-12T05:32:33.431Z,11.10
2018-08-12T05:35:01.556Z,11.47
2018-08-12T05:37:29.647Z,11.83
2018-08-12T05:39:57.747Z,11.30
2018-08-12T05:42:25.822Z,11.80
2018-08-12T05:44:53.910Z,11.57
2018-08-12T05:47:22.012Z,12.10
2018-08-12T05:49:50.138Z,12.07
2018-08-12T05:52:18.211Z,12.17
2018-08-12T05:54:46.470Z,11.47
2018-08-12T05:57:14.652Z,11.13
2018-08-12T05:59:42.691Z,12.17
2018-08-12T06:02:10.790Z,12.03
2018-08-12T06:04:38.898Z,11.07
2018-08-12T06:07:07.096Z,10.13
2018-08-12T06:09:35.178Z,11.63
2018-08-12T06:12:03.272Z,10.70
2018-08-12T06:14:31.336Z,11.47
2018-08-12T06:16:59.413Z,11.53
2018-08-12T06:19:27.602Z,11.53
2018-08-12T06:21:55.673Z,11.77
2018-08-12T06:24:23.761Z,11.47
2018-08-12T06:26:51.850Z,13.63
2018-08-12T06:29:20.022Z,11.63
2018-08-12T06:31:48.267Z,12.27
2018-08-12T06:34:16.368Z,11.20
2018-08-12T06:36:44.486Z,11.80
2018-08-12T06:39:12.913Z,13.60
2018-08-12T06:41:41.186Z,11.10
2018-08-12T06:44:09.260Z,10.47
2018-08-12T06:46:37.405Z,12.80
2018-08-12T06:49:05.729Z,10.10
2018-08-12T06:51:33.830Z,10.37
2018-08-12T06:54:01.910Z,26.57
2018-08-12T06:56:30.010Z,10.83
2018-08-12T06:58:58.092Z,10.87
2018-08-12T07:01:26.183Z,10.35
2018-08-12T07:03:54.241Z,9.27
2018-08-12T07:06:22.391Z,10.33
2018-08-12T07:08:50.442Z,9.93
2018-08-12T07:11:18.510Z,8.13
2018-08-12T07:13:46.606Z,11.13
2018-08-12T07:16:14.703Z,7.93
2018-08-12T07:18:42.803Z,7.30
2018-08-12T07:21:10.891Z,6.83
2018-08-12T07:23:38.980Z,7.07
2018-08-12T07:26:07.251Z,6.57
2018-08-12T07:28:35.322Z,7.27
2018-08-12T07:31:03.393Z,6.47
2018-08-12T07:33:31.477Z,6.43
2018-08-12T07:35:59.543Z,6.70
2018-08-12T07:38:28.507Z,5.33
2018-08-12T07:40:56.571Z,5.63
2018-08-12T07:43:24.660Z,5.97
2018-08-12T07:45:52.730Z,9.77
2018-08-12T07:48:20.842Z,6.73
2018-08-12T07:50:48.927Z,6.50
2018-08-12T07:53:17.010Z,7.40
2018-08-12T07:55:45.195Z,6.90
2018-08-12T07:58:13.275Z,8.73
2018-08-12T08:00:41.362Z,6.42
2018-08-12T08:03:09.471Z,6.20
2018-08-12T08:05:37.546Z,9.70
2018-08-12T08:08:05.650Z,7.40
2018-08-12T08:10:33.746Z,5.37
2018-08-12T08:13:01.864Z,5.17
2018-08-12T08:15:29.958Z,10.27
2018-08-12T08:17:58.276Z,5.43
2018-08-12T08:20:26.410Z,5.10
2018-08-12T08:22:54.867Z,5.00
2018-08-12T08:25:23.057Z,4.83
2018-08-12T08:27:51.118Z,5.53
2018-08-12T08:30:20.299Z,6.45
2018-08-12T08:32:48.527Z,5.80
2018-08-12T08:35:16.639Z,7.47
2018-08-12T08:37:44.748Z,4.67
2018-08-12T08:40:15.320Z,5.10
2018-08-12T08:42:43.388Z,4.60
2018-08-12T08:45:14.739Z,4.45
2018-08-12T08:47:44.146Z,4.53
2018-08-12T08:50:12.295Z,4.35
2018-08-12T08:52:40.370Z,3.67
2018-08-12T08:55:09.678Z,5.12
2018-08-12T08:57:37.995Z,3.45
2018-08-12T09:00:12.256Z,3.98
2018-08-12T09:02:40.534Z,3.55
2018-08-12T09:05:10.045Z,2.87
2018-08-12T09:07:38.441Z,2.40
2018-08-12T09:10:08.059Z,2.02
2018-08-12T09:12:36.848Z,3.42
2018-08-12T09:15:07.003Z,3.47
2018-08-12T09:17:35.414Z,2.85
2018-08-12T09:20:04.738Z,6.53
2018-08-12T09:22:34.176Z,2.00
2018-08-12T09:25:02.403Z,2.70
2018-08-12T09:27:30.502Z,6.25
2018-08-12T09:29:59.170Z,9.38
2018-08-12T09:32:27.242Z,2.60
2018-08-12T09:34:55.383Z,4.10
2018-08-12T09:37:23.478Z,4.22
2018-08-12T09:39:51.772Z,1.55
2018-08-12T09:42:19.897Z,1.67
2018-08-12T09:44:47.970Z,1.85
2018-08-12T09:47:16.248Z,3.12
2018-08-12T09:49:44.374Z,2.47
2018-08-12T09:52:12.471Z,2.33
2018-08-12T09:54:40.559Z,2.42
2018-08-12T09:57:08.655Z,3.10
2018-08-12T09:59:36.859Z,2.27
2018-08-12T10:02:04.927Z,3.65
2018-08-12T10:04:33.093Z,1.70
2018-08-12T10:07:01.191Z,3.90
2018-08-12T10:09:29.309Z,4.33
2018-08-12T10:11:57.386Z,2.98
2018-08-12T10:14:25.494Z,3.08
2018-08-12T10:16:53.582Z,8.05
2018-08-12T10:19:21.819Z,6.55
2018-08-12T10:21:50.135Z,3.00
2018-08-12T10:24:18.262Z,2.12
2018-08-12T10:26:46.330Z,1.75
2018-08-12T10:29:14.481Z,3.55
2018-08-12T10:31:42.509Z,2.02
2018-08-12T10:34:10.595Z,2.08
2018-08-12T10:36:38.699Z,3.77
2018-08-12T10:39:08.114Z,2.67
2018-08-12T10:41:36.287Z,2.77
2018-08-12T10:44:04.598Z,1.90
2018-08-12T10:46:32.709Z,2.87
2018-08-12T10:49:00.866Z,2.72
2018-08-12T10:51:29.102Z,3.47
2018-08-12T10:53:57.190Z,3.62
2018-08-12T10:56:25.278Z,2.60
2018-08-12T10:58:53.374Z,3.40
2018-08-12T11:01:21.474Z,2.58
2018-08-12T11:03:49.575Z,2.40
2018-08-12T11:06:17.721Z,5.00
2018-08-12T11:08:45.848Z,2.92
2018-08-12T11:11:13.980Z,2.47
2018-08-12T11:13:42.056Z,3.98
2018-08-12T11:16:10.116Z,2.47
2018-08-12T11:18:38.249Z,2.30
2018-08-12T11:21:06.291Z,1.95
2018-08-12T11:23:34.383Z,2.45
2018-08-12T11:26:03.966Z,2.95
2018-08-12T11:28:32.101Z,2.00
2018-08-12T11:31:01.310Z,2.62
2018-08-12T11:33:29.390Z,4.10
2018-08-12T11:35:57.493Z,2.45
2018-08-12T11:38:25.542Z,3.00
2018-08-12T11:40:53.618Z,4.12
2018-08-12T11:43:21.719Z,4.17
2018-08-12T11:45:49.778Z,2.10
2018-08-12T11:48:17.859Z,1.87
2018-08-12T11:50:45.934Z,2.52
2018-08-12T11:53:13.998Z,2.22
2018-08-12T11:55:42.078Z,3.35
2018-08-12T11:58:10.159Z,4.25
2018-08-12T12:00:38.257Z,2.08
2018-08-12T12:03:06.370Z,2.17
2018-08-12T12:05:34.466Z,2.15
2018-08-12T12:08:02.610Z,4.87
2018-08-12T12:10:30.695Z,2.00
2018-08-12T12:12:58.779Z,1.70
2018-08-12T12:15:26.966Z,2.00
2018-08-12T12:17:55.158Z,2.90
2018-08-12T12:20:23.286Z,2.98
2018-08-12T12:22:51.390Z,2.05
2018-08-12T12:25:20.658Z,1.42
2018-08-12T12:27:48.770Z,1.12
2018-08-12T12:30:19.329Z,4.55
2018-08-12T12:32:48.194Z,1.47
2018-08-12T12:35:16.287Z,1.35
2018-08-12T12:37:44.539Z,1.10
2018-08-12T12:40:14.598Z,5.40
2018-08-12T12:42:42.961Z,2.00
2018-08-12T12:45:12.265Z,1.12
2018-08-12T12:47:40.650Z,3.20
2018-08-12T12:50:11.619Z,2.65
2018-08-12T12:52:39.630Z,2.37
2018-08-12T12:55:07.798Z,1.95
2018-08-12T12:57:35.893Z,1.00
2018-08-12T13:00:05.746Z,1.90
2018-08-12T13:02:33.844Z,1.10
2018-08-12T13:05:01.934Z,1.17
2018-08-12T13:07:30.036Z,2.02
2018-08-12T13:09:58.138Z,2.80
2018-08-12T13:12:26.236Z,1.77
2018-08-12T13:14:54.396Z,1.17
2018-08-12T13:17:22.488Z,1.35
2018-08-12T13:19:50.574Z,1.47
2018-08-12T13:22:18.668Z,1.92
2018-08-12T13:24:46.766Z,1.80
2018-08-12T13:27:14.882Z,2.02
2018-08-12T13:29:43.000Z,2.30
2018-08-12T13:32:11.118Z,2.10
2018-08-12T13:34:39.350Z,0.90
2018-08-12T13:37:07.743Z,2.02
2018-08-12T13:39:35.829Z,1.35
2018-08-12T13:42:03.903Z,1.55
2018-08-12T13:44:31.999Z,1.42
2018-08-12T13:47:00.114Z,3.37
2018-08-12T13:49:28.199Z,2.55
2018-08-12T13:51:56.306Z,1.07
2018-08-12T13:54:24.379Z,1.30
2018-08-12T13:56:52.467Z,2.72
2018-08-12T13:59:20.586Z,1.37
2018-08-12T14:01:48.691Z,3.67
2018-08-12T14:04:16.803Z,1.10
2018-08-12T14:06:44.879Z,1.70
2018-08-12T14:09:13.000Z,2.58
2018-08-12T14:11:41.071Z,1.20
2018-08-12T14:14:09.198Z,4.40
2018-08-12T14:16:37.291Z,1.85
2018-08-12T14:19:05.375Z,3.10
2018-08-12T14:21:34.646Z,1.05
2018-08-12T14:24:02.741Z,1.05
2018-08-12T14:26:31.063Z,2.20
2018-08-12T14:28:59.174Z,0.93
2018-08-12T14:31:27.248Z,1.10
2018-08-12T14:33:55.598Z,1.30
2018-08-12T14:36:23.702Z,1.40
2018-08-12T14:38:51.783Z,1.72
2018-08-12T14:41:19.955Z,1.45
2018-08-12T14:43:48.175Z,1.10
2018-08-12T14:46:16.255Z,1.10
2018-08-12T14:48:44.323Z,1.17
2018-08-12T14:51:12.477Z,1.15
2018-08-12T14:53:40.486Z,1.30
2018-08-12T14:56:08.586Z,1.10
2018-08-12T14:58:36.670Z,1.30
2018-08-12T15:01:04.739Z,1.90
2018-08-12T15:03:32.827Z,5.35
2018-08-12T15:06:00.874Z,1.75
2018-08-12T15:08:28.968Z,2.47
2018-08-12T15:10:57.334Z,2.55
2018-08-12T15:13:25.407Z,1.82
2018-08-12T15:15:53.586Z,1.30
2018-08-12T15:18:21.768Z,1.50
2018-08-12T15:20:49.851Z,1.50
2018-08-12T15:23:18.395Z,2.37
2018-08-12T15:25:46.477Z,2.17
2018-08-12T15:28:14.570Z,1.15
2018-08-12T15:30:42.670Z,2.37
2018-08-12T15:33:10.765Z,1.40
2018-08-12T15:35:38.890Z,1.60
2018-08-12T15:38:07.352Z,3.75
2018-08-12T15:40:35.418Z,3.08
2018-08-12T15:43:03.494Z,4.87
2018-08-12T15:45:31.585Z,2.95
2018-08-12T15:47:59.665Z,3.33
2018-08-12T15:50:27.758Z,1.60
2018-08-12T15:52:55.841Z,1.40
2018-08-12T15:55:23.922Z,2.58
2018-08-12T15:57:52.196Z,3.63
2018-08-12T16:00:22.396Z,1.42
2018-08-12T16:02:50.562Z,1.37
2018-08-12T16:05:18.676Z,1.02
2018-08-12T16:07:47.866Z,4.72
2018-08-12T16:10:18.197Z,3.62
2018-08-12T16:12:47.564Z,0.65
2018-08-12T16:15:15.718Z,1.52
2018-08-12T16:17:43.795Z,2.27
2018-08-12T16:20:12.412Z,1.12
2018-08-12T16:22:40.535Z,4.62
2018-08-12T16:25:12.745Z,1.27
2018-08-12T16:27:41.167Z,1.20
2018-08-12T16:30:10.624Z,2.87
2018-08-12T16:32:38.700Z,1.20
2018-08-12T16:35:07.899Z,1.02
2018-08-12T16:37:35.970Z,1.67
2018-08-12T16:40:04.530Z,1.22
2018-08-12T16:42:32.619Z,2.35
2018-08-12T16:45:00.694Z,1.62
2018-08-12T16:47:28.825Z,1.02
2018-08-12T16:49:56.894Z,0.78
2018-08-12T16:52:24.966Z,1.52
2018-08-12T16:54:53.096Z,3.08
2018-08-12T16:57:21.166Z,0.93
2018-08-12T16:59:49.243Z,2.37
2018-08-12T17:02:17.516Z,3.05
2018-08-12T17:04:45.632Z,3.00
2018-08-12T17:07:13.707Z,2.52
2018-08-12T17:09:41.787Z,1.30
2018-08-12T17:12:09.906Z,4.67
2018-08-12T17:14:38.072Z,2.10
2018-08-12T17:17:06.219Z,1.30
2018-08-12T17:19:34.462Z,1.17
2018-08-12T17:22:02.551Z,4.53
2018-08-12T17:24:30.616Z,0.93
2018-08-12T17:26:58.715Z,1.00
2018-08-12T17:29:26.774Z,1.30
2018-08-12T17:31:54.854Z,1.57
2018-08-12T17:34:22.926Z,1.60
2018-08-12T17:36:51.000Z,3.45
2018-08-12T17:39:19.079Z,2.90
2018-08-12T17:41:47.148Z,6.15
2018-08-12T17:44:15.218Z,5.10
2018-08-12T17:46:43.282Z,5.62
2018-08-12T17:49:11.355Z,4.15
2018-08-12T17:51:39.435Z,3.75
2018-08-12T17:54:07.556Z,3.90
2018-08-12T17:56:35.581Z,4.70
2018-08-12T17:59:03.647Z,7.15
2018-08-12T18:01:31.737Z,8.03
2018-08-12T18:03:59.822Z,6.92
2018-08-12T18:06:27.890Z,6.40
2018-08-12T18:08:55.990Z,8.33
2018-08-12T18:11:24.604Z,5.35
2018-08-12T18:13:53.092Z,5.80
2018-08-12T18:16:21.834Z,2.80
2018-08-12T18:18:54.443Z,7.35
2018-08-12T18:21:22.647Z,3.47
2018-08-12T18:23:54.188Z,4.92
2018-08-12T18:26:22.530Z,4.47
2018-08-12T18:28:50.582Z,8.43
2018-08-12T18:31:18.692Z,6.10
2018-08-12T18:33:46.795Z,4.40
2018-08-12T18:36:14.898Z,5.58
2018-08-12T18:38:42.987Z,5.35
2018-08-12T18:41:11.078Z,3.27
2018-08-12T18:43:39.148Z,4.55
2018-08-12T18:46:07.249Z,2.52
2018-08-12T18:48:35.302Z,4.28
2018-08-12T18:51:03.386Z,4.33
2018-08-12T18:53:31.453Z,7.45
2018-08-12T18:55:59.540Z,3.50
2018-08-12T18:58:27.658Z,3.23
2018-08-12T19:00:55.745Z,3.33
2018-08-12T19:03:23.842Z,2.47
2018-08-12T19:05:51.957Z,2.92
2018-08-12T19:08:20.055Z,8.25
2018-08-12T19:10:48.136Z,4.28
2018-08-12T19:13:16.239Z,25.20
2018-08-12T19:15:44.329Z,8.00
2018-08-12T19:18:12.394Z,6.08
2018-08-12T19:20:40.478Z,7.58
2018-08-12T19:23:08.610Z,3.25
2018-08-12T19:28:11.442Z,6.55
2018-08-12T19:30:39.530Z,5.70
2018-08-12T19:33:07.611Z,4.72
2018-08-12T19:35:35.697Z,8.05
2018-08-12T19:38:03.776Z,10.05
2018-08-12T19:40:31.910Z,11.43
2018-08-12T19:43:00.007Z,9.15
2018-08-12T19:45:28.120Z,6.70
2018-08-12T19:47:56.240Z,1.98
2018-08-12T19:50:24.322Z,4.62
2018-08-12T19:52:52.398Z,4.30
2018-08-12T19:55:20.499Z,10.40
2018-08-12T19:57:48.592Z,6.30
2018-08-12T20:00:16.739Z,13.32
2018-08-12T20:02:45.095Z,6.03
2018-08-12T20:05:13.658Z,4.20
2018-08-12T20:07:41.791Z,6.47
2018-08-12T20:10:10.724Z,6.10
2018-08-12T20:12:38.821Z,4.50
2018-08-12T20:15:08.721Z,4.65
2018-08-12T20:17:36.987Z,1.77
2018-08-12T20:20:06.058Z,3.50
2018-08-12T20:22:34.134Z,3.98
2018-08-12T20:25:02.295Z,5.78
2018-08-12T20:27:30.374Z,5.05
2018-08-12T20:29:58.499Z,5.60
2018-08-12T20:32:26.558Z,4.42
2018-08-12T20:34:54.683Z,3.65
2018-08-12T20:37:22.757Z,6.00
2018-08-12T20:39:50.895Z,6.08
2018-08-12T20:42:18.976Z,6.60
2018-08-12T20:44:47.061Z,4.20
2018-08-12T20:47:15.120Z,4.33
2018-08-12T20:49:43.190Z,3.10
2018-08-12T20:52:11.374Z,5.33
2018-08-12T20:54:39.402Z,3.77
2018-08-12T20:57:07.630Z,4.58
2018-08-12T20:59:35.809Z,7.20
2018-08-12T21:02:06.858Z,2.70
2018-08-12T21:04:35.223Z,2.27
2018-08-12T21:07:04.634Z,3.67
2018-08-12T21:09:32.799Z,4.15
2018-08-12T21:12:00.993Z,5.08
2018-08-12T21:14:28.978Z,7.28
2018-08-12T21:16:57.138Z,5.47
2018-08-12T21:19:25.938Z,4.03
2018-08-12T21:21:54.034Z,3.00
2018-08-12T21:24:22.172Z,4.50
2018-08-12T21:26:50.251Z,3.05
2018-08-12T21:29:18.620Z,4.05
2018-08-12T21:31:46.681Z,3.37
2018-08-12T21:34:14.886Z,4.05
2018-08-12T21:36:43.069Z,2.90
2018-08-12T21:39:12.857Z,4.47
2018-08-12T21:41:41.214Z,5.12
2018-08-12T21:44:09.318Z,3.52
2018-08-12T21:46:37.976Z,6.25
2018-08-12T21:49:06.374Z,7.58
2018-08-12T21:51:35.062Z,5.65
2018-08-12T21:54:03.190Z,7.72
2018-08-12T21:56:31.381Z,3.80
2018-08-12T21:58:59.454Z,5.08
2018-08-12T22:01:27.525Z,2.85
2018-08-12T22:03:55.728Z,3.47
2018-08-12T22:06:24.120Z,3.98
2018-08-12T22:08:52.247Z,7.72
2018-08-12T22:11:20.326Z,2.40
2018-08-12T22:13:48.534Z,2.72
2018-08-12T22:16:17.510Z,3.45
2018-08-12T22:18:45.887Z,3.52
2018-08-12T22:21:13.966Z,3.75
2018-08-12T22:23:42.030Z,3.72
2018-08-12T22:26:10.394Z,3.40
2018-08-12T22:28:38.442Z,3.58
2018-08-12T22:31:06.766Z,2.90
2018-08-12T22:33:34.858Z,3.08
2018-08-12T22:36:02.928Z,3.60
2018-08-12T22:38:30.996Z,4.22
2018-08-12T22:40:59.075Z,4.75
2018-08-12T22:43:27.342Z,5.03
2018-08-12T22:45:55.510Z,6.20
2018-08-12T22:48:23.582Z,5.40
2018-08-12T22:50:51.842Z,6.28
2018-08-12T22:53:19.948Z,6.67
2018-08-12T22:55:48.060Z,4.15
2018-08-12T22:58:16.770Z,3.67
2018-08-12T23:00:44.862Z,4.30
2018-08-12T23:03:13.039Z,6.28
2018-08-12T23:05:41.243Z,3.40
2018-08-12T23:08:09.954Z,3.10
2018-08-12T23:10:39.116Z,3.60
2018-08-12T23:13:07.477Z,5.12
2018-08-12T23:16:21.763Z,3.60
2018-08-12T23:18:49.872Z,3.87
2018-08-12T23:21:18.834Z,4.78
2018-08-12T23:23:48.006Z,6.10
2018-08-12T23:26:18.350Z,3.60
2018-08-12T23:28:46.598Z,4.85
2018-08-12T23:31:14.678Z,3.12
2018-08-12T23:33:42.755Z,3.50
2018-08-12T23:36:11.216Z,5.22
2018-08-12T23:38:39.289Z,3.67
2018-08-12T23:41:08.278Z,4.17
2018-08-12T23:43:36.486Z,5.30
2018-08-12T23:46:04.567Z,5.95
2018-08-12T23:48:32.742Z,5.73
2018-08-12T23:51:01.606Z,3.58
2018-08-12T23:53:29.741Z,3.35
2018-08-12T23:55:57.914Z,4.92
2018-08-12T23:58:26.142Z,4.90
